createdAt,value
2022-11-20T00:01:41.435Z,99756.63
2022-11-20T00:06:42.752Z,99748.16
2022-11-20T00:11:44.103Z,99748.38
2022-11-20T00:16:45.427Z,99752.22
2022-11-20T00:21:47.069Z,99731.03
2022-11-20T00:26:48.377Z,99768.38
2022-11-20T00:31:49.746Z,99752.56
2022-11-20T00:36:51.043Z,99764.25
2022-11-20T00:41:52.329Z,99747.50
2022-11-20T00:46:53.646Z,99749.19
2022-11-20T00:51:54.994Z,99727.28
2022-11-20T00:56:56.344Z,99727.91
2022-11-20T01:01:57.636Z,99735.63
2022-11-20T01:06:59.048Z,99725.69
2022-11-20T01:12:01.145Z,99742.03
2022-11-20T01:17:02.468Z,99738.06
2022-11-20T01:22:03.806Z,99736.75
2022-11-20T01:27:05.124Z,99732.34
2022-11-20T01:32:06.499Z,99725.78
2022-11-20T01:37:07.843Z,99728.69
2022-11-20T01:42:27.839Z,99724.38
2022-11-20T01:47:40.566Z,99719.28
2022-11-20T01:52:46.539Z,99722.94
2022-11-20T01:57:49.272Z,99715.13
2022-11-20T02:02:58.548Z,99726.09
2022-11-20T02:08:01.252Z,99714.94
2022-11-20T02:13:21.732Z,99713.44
2022-11-20T02:18:24.669Z,99711.28
2022-11-20T02:23:57.178Z,99725.56
2022-11-20T02:29:00.062Z,99703.88
2022-11-20T02:34:01.438Z,99695.97
2022-11-20T02:39:04.329Z,99697.19
2022-11-20T02:44:06.527Z,99706.22
2022-11-20T02:49:07.895Z,99689.00
2022-11-20T02:54:09.258Z,99686.94
2022-11-20T02:59:10.913Z,99702.75
2022-11-20T03:04:12.232Z,99720.25
2022-11-20T03:09:13.901Z,99714.31
2022-11-20T03:14:15.531Z,99699.16
2022-11-20T03:19:16.827Z,99705.56
2022-11-20T03:24:18.223Z,99674.16
2022-11-20T03:29:19.943Z,99703.31
2022-11-20T03:34:21.514Z,99698.78
2022-11-20T03:39:23.092Z,99697.41
2022-11-20T03:44:24.745Z,99691.84
2022-11-20T03:49:26.096Z,99700.69
2022-11-20T03:54:27.404Z,99695.97
2022-11-20T03:59:28.737Z,99683.94
2022-11-20T04:04:30.090Z,99690.22
2022-11-20T04:09:31.498Z,99658.63
2022-11-20T04:14:32.977Z,99672.47
2022-11-20T04:19:34.315Z,99679.63
2022-11-20T04:24:35.676Z,99673.22
2022-11-20T04:29:37.012Z,99669.09
2022-11-20T04:34:38.410Z,99661.19
2022-11-20T04:39:39.758Z,99676.22
2022-11-20T04:44:41.065Z,99675.31
2022-11-20T04:49:42.444Z,99672.75
2022-11-20T04:54:43.820Z,99660.06
2022-11-20T04:59:45.142Z,99654.59
2022-11-20T05:04:47.149Z,99651.78
2022-11-20T05:09:48.477Z,99658.84
2022-11-20T05:14:49.817Z,99641.81
2022-11-20T05:19:53.220Z,99656.09
2022-11-20T05:24:54.697Z,99649.19
2022-11-20T05:29:56.170Z,99655.91
2022-11-20T05:34:57.461Z,99647.25
2022-11-20T05:39:58.949Z,99654.75
2022-11-20T05:45:01.663Z,99639.34
2022-11-20T05:50:03.163Z,99658.56
2022-11-20T05:55:04.836Z,99647.91
2022-11-20T06:00:06.982Z,99656.09
2022-11-20T06:05:08.750Z,99640.09
2022-11-20T06:10:10.497Z,99646.84
2022-11-20T06:15:11.928Z,99643.69
2022-11-20T06:20:13.502Z,99650.44
2022-11-20T06:25:15.068Z,99655.53
2022-11-20T06:30:16.492Z,99644.22
2022-11-20T06:35:17.804Z,99638.78
2022-11-20T06:40:19.096Z,99645.94
2022-11-20T06:45:20.456Z,99658.25
2022-11-20T06:50:21.764Z,99643.63
2022-11-20T06:55:23.125Z,99663.28
2022-11-20T07:00:24.993Z,99666.63
2022-11-20T07:05:26.294Z,99650.84
2022-11-20T07:10:27.962Z,99655.47
2022-11-20T07:15:29.382Z,99647.72
2022-11-20T07:20:30.798Z,99636.75
2022-11-20T07:25:32.193Z,99661.75
2022-11-20T07:30:33.544Z,99653.66
2022-11-20T07:35:34.877Z,99649.16
2022-11-20T07:40:36.260Z,99654.06
2022-11-20T07:45:37.688Z,99654.63
2022-11-20T07:50:39.052Z,99648.97
2022-11-20T07:55:40.697Z,99658.00
2022-11-20T08:00:42.256Z,99659.47
2022-11-20T08:05:43.684Z,99675.66
2022-11-20T08:10:45.063Z,99684.88
2022-11-20T08:15:51.174Z,99680.88
2022-11-20T08:20:52.510Z,99676.53
2022-11-20T08:25:53.832Z,99690.81
2022-11-20T08:31:00.688Z,99685.88
2022-11-20T08:36:03.569Z,99688.06
2022-11-20T08:41:24.444Z,99702.41
2022-11-20T08:46:27.473Z,99702.00
2022-11-20T08:51:28.846Z,99704.44
2022-11-20T08:56:30.427Z,99716.72
2022-11-20T09:01:31.842Z,99703.06
2022-11-20T09:06:33.171Z,99704.53
2022-11-20T09:11:36.038Z,99708.31
2022-11-20T09:16:37.432Z,99700.81
2022-11-20T09:21:38.738Z,99709.28
2022-11-20T09:26:40.060Z,99719.34
2022-11-20T09:31:41.478Z,99719.44
2022-11-20T09:36:42.993Z,99715.69
2022-11-20T09:41:50.618Z,99711.88
2022-11-20T09:47:10.772Z,99706.78
2022-11-20T09:52:19.468Z,99708.59
2022-11-20T09:57:30.212Z,99691.59
2022-11-20T10:02:41.531Z,99697.56
2022-11-20T10:08:11.797Z,99689.13
2022-11-20T10:13:28.732Z,99683.78
2022-11-20T10:18:52.595Z,99680.00
2022-11-20T10:24:04.413Z,99671.50
2022-11-20T10:29:14.796Z,99684.75
2022-11-20T10:34:29.634Z,99672.97
2022-11-20T10:39:41.077Z,99678.28
2022-11-20T10:45:05.723Z,99672.25
2022-11-20T10:50:18.993Z,99666.63
2022-11-20T10:55:41.794Z,99658.53
2022-11-20T11:00:43.282Z,99658.97
2022-11-20T11:06:07.933Z,99649.78
2022-11-20T11:11:21.858Z,99650.63
2022-11-20T11:16:25.658Z,99640.78
2022-11-20T11:21:27.658Z,99642.22
2022-11-20T11:26:29.966Z,99645.19
2022-11-20T11:31:34.365Z,99635.22
2022-11-20T11:36:36.688Z,99621.44
2022-11-20T11:41:38.478Z,99612.28
2022-11-20T11:46:44.919Z,99621.44
2022-11-20T11:52:18.183Z,99613.72
2022-11-20T11:57:37.690Z,99615.78
2022-11-20T12:02:42.052Z,99604.69
2022-11-20T12:07:54.947Z,99594.41
2022-11-20T12:13:03.067Z,99593.53
2022-11-20T12:18:15.525Z,99589.16
2022-11-20T12:23:36.808Z,99580.75
2022-11-20T12:28:57.994Z,99577.41
2022-11-20T12:34:13.113Z,99579.06
2022-11-20T12:39:28.818Z,99586.28
2022-11-20T12:45:11.737Z,99594.56
2022-11-20T12:50:29.283Z,99580.34
2022-11-20T12:55:52.530Z,99583.34
2022-11-20T13:01:05.872Z,99578.25
2022-11-20T13:06:15.191Z,99568.09
2022-11-20T13:11:28.431Z,99578.06
2022-11-20T13:16:54.787Z,99554.13
2022-11-20T13:21:56.212Z,99559.66
2022-11-20T13:27:13.733Z,99549.31
2022-11-20T13:32:18.527Z,99545.31
2022-11-20T13:37:37.764Z,99530.31
2022-11-20T13:43:20.656Z,99524.91
2022-11-20T13:48:24.411Z,99524.34
2022-11-20T13:54:02.709Z,99522.81
2022-11-20T13:59:27.264Z,99516.13
2022-11-20T14:04:36.029Z,99516.81
2022-11-20T14:09:37.402Z,99517.78
2022-11-20T14:14:48.963Z,99517.75
2022-11-20T14:19:51.980Z,99514.19
2022-11-20T14:25:13.591Z,99492.22
2022-11-20T14:30:17.639Z,99480.97
2022-11-20T14:35:24.890Z,99485.56
2022-11-20T14:40:29.372Z,99477.28
2022-11-20T14:45:30.839Z,99471.16
2022-11-20T14:50:32.230Z,99478.97
2022-11-20T14:55:36.418Z,99477.91
2022-11-20T15:00:38.117Z,99452.78
2022-11-20T15:05:48.871Z,99451.44
2022-11-20T15:10:52.295Z,99444.22
2022-11-20T15:15:56.093Z,99437.38
2022-11-20T15:20:59.692Z,99432.69
2022-11-20T15:26:01.078Z,99437.97
2022-11-20T15:31:03.923Z,99423.31
2022-11-20T15:36:05.619Z,99425.13
2022-11-20T15:41:07.781Z,99429.69
2022-11-20T15:46:16.301Z,99414.66
2022-11-20T15:51:20.632Z,99412.84
2022-11-20T15:56:22.198Z,99408.19
2022-11-20T16:01:23.672Z,99406.97
2022-11-20T16:06:25.006Z,99397.63
2022-11-20T16:11:26.311Z,99389.94
2022-11-20T16:16:34.064Z,99388.97
2022-11-20T16:21:35.801Z,99375.38
2022-11-20T16:26:37.379Z,99376.72
2022-11-20T16:31:38.781Z,99372.16
2022-11-20T16:36:42.310Z,99359.44
2022-11-20T16:41:43.637Z,99337.19
2022-11-20T16:46:45.034Z,99337.31
2022-11-20T16:51:46.881Z,99338.13
2022-11-20T16:56:48.428Z,99323.84
2022-11-20T17:01:49.993Z,99336.59
2022-11-20T17:06:51.485Z,99332.97
2022-11-20T17:11:52.921Z,99327.56
2022-11-20T17:16:54.286Z,99323.63
2022-11-20T17:21:55.678Z,99316.50
2022-11-20T17:26:56.972Z,99312.69
2022-11-20T17:31:58.647Z,99307.50
2022-11-20T17:37:00.029Z,99307.50
2022-11-20T17:42:20.005Z,99291.78
2022-11-20T17:47:21.458Z,99283.72
2022-11-20T17:52:23.001Z,99277.69
2022-11-20T17:57:43.306Z,99281.06
2022-11-20T18:02:44.699Z,99267.84
2022-11-20T18:07:46.087Z,99264.47
2022-11-20T18:12:47.504Z,99249.81
2022-11-20T18:17:48.900Z,99251.94
2022-11-20T18:22:50.203Z,99229.13
2022-11-20T18:27:51.491Z,99228.03
2022-11-20T18:32:52.886Z,99208.09
2022-11-20T18:37:54.456Z,99210.94
2022-11-20T18:43:14.685Z,99197.84
2022-11-20T18:48:16.009Z,99204.78
2022-11-20T18:53:17.282Z,99182.47
2022-11-20T18:58:18.621Z,99174.47
2022-11-20T19:03:19.962Z,99175.91
2022-11-20T19:08:21.273Z,99173.97
2022-11-20T19:13:22.820Z,99165.59
2022-11-20T19:18:24.247Z,99175.63
2022-11-20T19:23:25.591Z,99162.41
2022-11-20T19:28:29.951Z,99165.66
2022-11-20T19:33:32.255Z,99163.97
2022-11-20T19:38:33.847Z,99141.19
2022-11-20T19:43:35.706Z,99139.16
2022-11-20T19:48:38.252Z,99132.56
2022-11-20T19:53:39.612Z,99120.88
2022-11-20T19:58:42.102Z,99120.22
2022-11-20T20:03:44.913Z,99110.16
2022-11-20T20:08:47.051Z,99098.91
2022-11-20T20:13:48.426Z,99099.63
2022-11-20T20:18:49.794Z,99099.78
2022-11-20T20:23:53.579Z,99095.56
2022-11-20T20:28:55.598Z,99070.56
2022-11-20T20:33:57.869Z,99067.19
2022-11-20T20:38:59.645Z,99075.50
2022-11-20T20:44:20.121Z,99073.72
2022-11-20T20:49:22.048Z,99071.28
2022-11-20T20:54:23.570Z,99078.00
2022-11-20T20:59:25.444Z,99078.78
2022-11-20T21:04:27.058Z,99078.25
2022-11-20T21:09:28.814Z,99075.84
2022-11-20T21:14:30.547Z,99088.09
2022-11-20T21:19:32.161Z,99075.59
2022-11-20T21:24:35.629Z,99067.44
2022-11-20T21:29:36.929Z,99056.06
2022-11-20T21:34:38.265Z,99057.66
2022-11-20T21:39:50.488Z,99062.94
2022-11-20T21:44:51.849Z,99064.16
2022-11-20T21:49:53.148Z,99076.66
2022-11-20T21:54:54.483Z,99068.94
2022-11-20T21:59:55.773Z,99067.25
2022-11-20T22:04:57.127Z,99067.38
2022-11-20T22:09:58.439Z,99060.78
2022-11-20T22:14:59.753Z,99054.19
2022-11-20T22:20:01.039Z,99035.09
2022-11-20T22:25:02.362Z,99041.59
2022-11-20T22:30:04.001Z,99041.00
2022-11-20T22:35:05.609Z,99056.38
2022-11-20T22:40:08.694Z,99051.91
2022-11-20T22:45:10.864Z,99049.41
2022-11-20T22:50:12.437Z,99045.19
2022-11-20T22:55:16.438Z,99039.91
2022-11-20T23:00:18.586Z,99039.66
2022-11-20T23:05:19.912Z,99035.09
2022-11-20T23:10:21.225Z,99031.03
2022-11-20T23:15:22.543Z,99036.06
2022-11-20T23:20:23.988Z,99037.75
2022-11-20T23:25:25.389Z,99042.78
2022-11-20T23:30:26.683Z,99039.28
2022-11-20T23:35:27.998Z,99046.97
2022-11-20T23:40:29.491Z,99050.34
2022-11-20T23:45:30.841Z,99037.81
2022-11-20T23:50:32.165Z,99042.84
2022-11-20T23:55:33.868Z,99042.34
